Houston, TX

12:02 AM CDT em 26 de Agosto de 2016 (GMT -0500)
George Bush Intercontinental-Houston Airport | | Change Station

Elev 108 ft 29.98 °N, 95.34 °W | Updated 9 minutes ago

Mostly Cloudy
Muito Nublado
78 °F
Aparente 78 °F
N
8
Vento Variável Vento de NNE

Hoje
Máxima -- | Mínima -- °F
--% Possibilidade de Precip.
Ontem
Máxima -- | Mínima -- °F
Precip. -- pol
Pressão 30.05 pol
Visibilidade 10.0 milhas
Nuvens Poucas 2200 ft
Muito Nublado 25000 ft
Ponto de Orvalho 73 °F
Humidade 84%
Chuva 0.42 pol
Altura de Neve Não disponível
6:55 AM 7:50 PM
Quarto minguante, 38% visible
METAR KIAH 260453Z 03007KT 10SM FEW022 BKN250 26/23 A3005 RMK AO2 SLP175 T02560228
Pressão 30.05 pol
Visibilidade 10.0 milhas
Nuvens Poucas 2200 ft
Muito Nublado 25000 ft
Ponto de Orvalho 73 °F
Humidade 84%
Chuva 0.42 pol
Altura de Neve Não disponível
6:55 AM 7:50 PM
Quarto minguante, 38% visible
METAR KIAH 260453Z 03007KT 10SM FEW022 BKN250 26/23 A3005 RMK AO2 SLP175 T02560228
A tropical disturbance pushing toward the Bahamas, is expected to develop into a tropical depression or storm, and will likely target Florida and the Gulf Coast this weekend into next week.

Right now, the disturbance remains a broad area of low pressure pushing through the Dominican Republic and Haiti, headed toward the southeast Bahamas. Rainfall totals over 3 inches (with locally higher amounts) are expected in Hispañiola, particularly over elevated terrain.

10-Day Weather Forecast

Almanac

Astronomia

Aug. 26, 2016 Nascer Pôr
Hora atual
Crepúsculo civil
Crepúsculo náutico
Crepúsculo astronómico
Lua
Comprimento da luz visível
Duração do Dia
Tomorrow will be .
, % of the Moon is Illuminated

Extremos de Hoje

situação na parte mais alta situação na parte mais baixa

Community

WunderPhotos

Upload Photos

1,935,057 fotografias inseridas!

WunderBlog® & News

Nearby

Qualidade do Ar

  Qualidade do Ar Índice da Q.A. Poluente
Not available.

Altura da Neve

Estação altura Altitude

Actividade Sísmisca

Cidade Distância Mag. Hora & Data
Mínima magnitude apresentada é 2.5.

Temperaturas das Águas Costeiras

Local Temperatura

Stations

Estações Meteorológicas Próximas

Localização da Estação Temp. Sensação Térmica Ponto de Orvalho Humidade Vento Precip. Elev Actualizado Tipo
                   

Watches & Warnings

There are currently no watches in effect.